sensor_id;sensor_type;location;lat;lon;timestamp;P1;durP1;ratioP1;P2;durP2;ratioP2
37349;SDS011;23231;52.358;4.926;2023-04-16T00:01:42;12.18;;;4.40;;
37349;SDS011;23231;52.358;4.926;2023-04-16T00:06:42;13.13;;;5.53;;
37349;SDS011;23231;52.358;4.926;2023-04-16T00:11:43;15.20;;;5.32;;
37349;SDS011;23231;52.358;4.926;2023-04-16T00:16:43;16.33;;;5.70;;
37349;SDS011;23231;52.358;4.926;2023-04-16T00:21:44;14.23;;;5.78;;
37349;SDS011;23231;52.358;4.926;2023-04-16T00:26:44;14.52;;;5.25;;
37349;SDS011;23231;52.358;4.926;2023-04-16T00:31:45;15.93;;;6.35;;
37349;SDS011;23231;52.358;4.926;2023-04-16T00:36:45;15.18;;;6.38;;
37349;SDS011;23231;52.358;4.926;2023-04-16T00:41:46;12.93;;;5.78;;
37349;SDS011;23231;52.358;4.926;2023-04-16T00:46:46;12.10;;;5.60;;
37349;SDS011;23231;52.358;4.926;2023-04-16T00:51:47;13.50;;;6.15;;
37349;SDS011;23231;52.358;4.926;2023-04-16T00:56:47;19.85;;;7.18;;
37349;SDS011;23231;52.358;4.926;2023-04-16T01:01:48;13.05;;;5.47;;
37349;SDS011;23231;52.358;4.926;2023-04-16T01:06:48;15.20;;;5.95;;
37349;SDS011;23231;52.358;4.926;2023-04-16T01:11:50;12.50;;;4.80;;
37349;SDS011;23231;52.358;4.926;2023-04-16T01:16:50;13.23;;;5.75;;
37349;SDS011;23231;52.358;4.926;2023-04-16T01:21:50;12.38;;;5.72;;
37349;SDS011;23231;52.358;4.926;2023-04-16T01:26:51;13.43;;;5.70;;
37349;SDS011;23231;52.358;4.926;2023-04-16T01:31:51;12.07;;;5.03;;
37349;SDS011;23231;52.358;4.926;2023-04-16T01:36:51;16.35;;;5.20;;
37349;SDS011;23231;52.358;4.926;2023-04-16T01:41:52;19.65;;;6.00;;
37349;SDS011;23231;52.358;4.926;2023-04-16T01:46:52;12.77;;;5.72;;
37349;SDS011;23231;52.358;4.926;2023-04-16T01:51:53;11.73;;;5.30;;
37349;SDS011;23231;52.358;4.926;2023-04-16T01:56:53;12.63;;;5.18;;
37349;SDS011;23231;52.358;4.926;2023-04-16T02:01:54;14.27;;;5.43;;
37349;SDS011;23231;52.358;4.926;2023-04-16T02:06:54;12.75;;;5.28;;
37349;SDS011;23231;52.358;4.926;2023-04-16T02:11:55;13.30;;;5.40;;
37349;SDS011;23231;52.358;4.926;2023-04-16T02:16:55;16.95;;;5.95;;
37349;SDS011;23231;52.358;4.926;2023-04-16T02:21:56;15.55;;;5.80;;
37349;SDS011;23231;52.358;4.926;2023-04-16T02:26:56;14.75;;;5.90;;
37349;SDS011;23231;52.358;4.926;2023-04-16T02:31:57;19.17;;;6.10;;
37349;SDS011;23231;52.358;4.926;2023-04-16T02:36:58;14.85;;;6.28;;
37349;SDS011;23231;52.358;4.926;2023-04-16T02:41:59;14.45;;;6.60;;
37349;SDS011;23231;52.358;4.926;2023-04-16T02:47:01;15.57;;;7.15;;
37349;SDS011;23231;52.358;4.926;2023-04-16T02:52:01;17.08;;;7.57;;
37349;SDS011;23231;52.358;4.926;2023-04-16T02:57:02;18.08;;;7.50;;
37349;SDS011;23231;52.358;4.926;2023-04-16T03:02:02;19.67;;;8.18;;
37349;SDS011;23231;52.358;4.926;2023-04-16T03:07:02;17.45;;;8.30;;
37349;SDS011;23231;52.358;4.926;2023-04-16T03:12:03;15.93;;;8.55;;
37349;SDS011;23231;52.358;4.926;2023-04-16T03:17:03;18.50;;;8.50;;
37349;SDS011;23231;52.358;4.926;2023-04-16T03:22:04;20.55;;;9.38;;
37349;SDS011;23231;52.358;4.926;2023-04-16T03:27:04;23.75;;;10.05;;
37349;SDS011;23231;52.358;4.926;2023-04-16T03:32:05;24.15;;;9.75;;
37349;SDS011;23231;52.358;4.926;2023-04-16T03:37:05;25.08;;;11.25;;
37349;SDS011;23231;52.358;4.926;2023-04-16T03:42:05;28.65;;;11.35;;
37349;SDS011;23231;52.358;4.926;2023-04-16T03:47:06;29.95;;;11.60;;
37349;SDS011;23231;52.358;4.926;2023-04-16T03:52:06;28.63;;;11.95;;
37349;SDS011;23231;52.358;4.926;2023-04-16T03:57:07;27.90;;;12.02;;
37349;SDS011;23231;52.358;4.926;2023-04-16T04:02:07;34.97;;;12.32;;
37349;SDS011;23231;52.358;4.926;2023-04-16T04:07:07;30.90;;;11.05;;
37349;SDS011;23231;52.358;4.926;2023-04-16T04:12:08;33.53;;;12.65;;
37349;SDS011;23231;52.358;4.926;2023-04-16T04:17:09;32.38;;;11.73;;
37349;SDS011;23231;52.358;4.926;2023-04-16T04:22:09;35.63;;;13.23;;
37349;SDS011;23231;52.358;4.926;2023-04-16T04:27:09;31.85;;;12.18;;
37349;SDS011;23231;52.358;4.926;2023-04-16T04:32:10;39.70;;;12.38;;
37349;SDS011;23231;52.358;4.926;2023-04-16T04:37:10;33.67;;;13.35;;
37349;SDS011;23231;52.358;4.926;2023-04-16T04:42:10;35.08;;;11.95;;
37349;SDS011;23231;52.358;4.926;2023-04-16T04:47:11;34.42;;;12.77;;
37349;SDS011;23231;52.358;4.926;2023-04-16T04:52:12;31.35;;;12.65;;
37349;SDS011;23231;52.358;4.926;2023-04-16T04:57:12;37.42;;;12.70;;
37349;SDS011;23231;52.358;4.926;2023-04-16T05:02:13;29.38;;;12.38;;
37349;SDS011;23231;52.358;4.926;2023-04-16T05:07:13;27.10;;;11.57;;
37349;SDS011;23231;52.358;4.926;2023-04-16T05:12:14;27.42;;;11.43;;
37349;SDS011;23231;52.358;4.926;2023-04-16T05:17:14;25.15;;;11.20;;
37349;SDS011;23231;52.358;4.926;2023-04-16T05:22:14;30.40;;;11.63;;
37349;SDS011;23231;52.358;4.926;2023-04-16T05:27:17;34.53;;;12.20;;
37349;SDS011;23231;52.358;4.926;2023-04-16T05:32:18;33.25;;;11.60;;
37349;SDS011;23231;52.358;4.926;2023-04-16T05:37:18;31.73;;;12.57;;
37349;SDS011;23231;52.358;4.926;2023-04-16T05:42:19;24.92;;;12.23;;
37349;SDS011;23231;52.358;4.926;2023-04-16T05:47:19;26.92;;;11.23;;
37349;SDS011;23231;52.358;4.926;2023-04-16T05:52:20;33.58;;;14.00;;
37349;SDS011;23231;52.358;4.926;2023-04-16T05:57:20;35.22;;;13.07;;
37349;SDS011;23231;52.358;4.926;2023-04-16T06:02:21;28.40;;;12.70;;
37349;SDS011;23231;52.358;4.926;2023-04-16T06:07:21;28.77;;;12.75;;
37349;SDS011;23231;52.358;4.926;2023-04-16T06:12:21;31.83;;;12.13;;
37349;SDS011;23231;52.358;4.926;2023-04-16T06:17:22;30.90;;;13.40;;
37349;SDS011;23231;52.358;4.926;2023-04-16T06:22:22;30.65;;;12.00;;
37349;SDS011;23231;52.358;4.926;2023-04-16T06:27:23;34.03;;;11.10;;
37349;SDS011;23231;52.358;4.926;2023-04-16T06:32:23;31.55;;;12.10;;
37349;SDS011;23231;52.358;4.926;2023-04-16T06:37:24;29.48;;;11.80;;
37349;SDS011;23231;52.358;4.926;2023-04-16T06:42:24;31.70;;;12.52;;
37349;SDS011;23231;52.358;4.926;2023-04-16T06:47:25;26.60;;;12.05;;
37349;SDS011;23231;52.358;4.926;2023-04-16T06:52:26;32.22;;;12.85;;
37349;SDS011;23231;52.358;4.926;2023-04-16T06:57:26;30.38;;;12.25;;
37349;SDS011;23231;52.358;4.926;2023-04-16T07:02:26;34.38;;;12.52;;
37349;SDS011;23231;52.358;4.926;2023-04-16T07:07:27;29.88;;;12.45;;
37349;SDS011;23231;52.358;4.926;2023-04-16T07:12:27;24.98;;;11.18;;
37349;SDS011;23231;52.358;4.926;2023-04-16T07:17:28;23.35;;;10.63;;
37349;SDS011;23231;52.358;4.926;2023-04-16T07:22:28;28.25;;;10.95;;
37349;SDS011;23231;52.358;4.926;2023-04-16T07:27:28;27.92;;;11.98;;
37349;SDS011;23231;52.358;4.926;2023-04-16T07:32:29;25.35;;;10.48;;
37349;SDS011;23231;52.358;4.926;2023-04-16T07:37:29;19.58;;;9.70;;
37349;SDS011;23231;52.358;4.926;2023-04-16T07:42:30;24.67;;;10.10;;
37349;SDS011;23231;52.358;4.926;2023-04-16T07:47:30;21.20;;;9.35;;
37349;SDS011;23231;52.358;4.926;2023-04-16T07:52:31;24.08;;;10.30;;
37349;SDS011;23231;52.358;4.926;2023-04-16T08:21:18;31.15;;;12.85;;
37349;SDS011;23231;52.358;4.926;2023-04-16T08:26:19;28.58;;;11.30;;
37349;SDS011;23231;52.358;4.926;2023-04-16T08:31:19;27.70;;;12.95;;
37349;SDS011;23231;52.358;4.926;2023-04-16T08:36:21;32.22;;;12.13;;
37349;SDS011;23231;52.358;4.926;2023-04-16T08:41:21;29.90;;;12.27;;
37349;SDS011;23231;52.358;4.926;2023-04-16T08:46:23;27.65;;;11.40;;
37349;SDS011;23231;52.358;4.926;2023-04-16T08:51:25;28.50;;;10.35;;
37349;SDS011;23231;52.358;4.926;2023-04-16T08:56:29;21.60;;;9.98;;
37349;SDS011;23231;52.358;4.926;2023-04-16T09:01:34;22.52;;;10.43;;
37349;SDS011;23231;52.358;4.926;2023-04-16T09:06:35;20.10;;;9.38;;
37349;SDS011;23231;52.358;4.926;2023-04-16T09:11:35;23.55;;;10.25;;
37349;SDS011;23231;52.358;4.926;2023-04-16T09:16:38;20.35;;;9.80;;
37349;SDS011;23231;52.358;4.926;2023-04-16T09:21:39;19.42;;;10.05;;
37349;SDS011;23231;52.358;4.926;2023-04-16T09:26:41;20.30;;;9.73;;
37349;SDS011;23231;52.358;4.926;2023-04-16T09:31:55;24.67;;;10.82;;
37349;SDS011;23231;52.358;4.926;2023-04-16T09:42:14;20.48;;;9.88;;
37349;SDS011;23231;52.358;4.926;2023-04-16T09:47:14;19.40;;;10.18;;
37349;SDS011;23231;52.358;4.926;2023-04-16T09:52:15;24.08;;;10.80;;
37349;SDS011;23231;52.358;4.926;2023-04-16T09:57:22;20.88;;;9.70;;
37349;SDS011;23231;52.358;4.926;2023-04-16T10:02:26;23.75;;;9.45;;
37349;SDS011;23231;52.358;4.926;2023-04-16T10:07:28;20.77;;;9.70;;
37349;SDS011;23231;52.358;4.926;2023-04-16T10:12:29;23.88;;;9.63;;
37349;SDS011;23231;52.358;4.926;2023-04-16T10:17:31;23.35;;;10.45;;
37349;SDS011;23231;52.358;4.926;2023-04-16T10:22:32;25.35;;;10.57;;
37349;SDS011;23231;52.358;4.926;2023-04-16T10:27:32;20.85;;;9.82;;
37349;SDS011;23231;52.358;4.926;2023-04-16T10:32:33;19.45;;;9.43;;
37349;SDS011;23231;52.358;4.926;2023-04-16T10:37:36;23.13;;;9.80;;
37349;SDS011;23231;52.358;4.926;2023-04-16T10:42:36;21.67;;;9.70;;
37349;SDS011;23231;52.358;4.926;2023-04-16T10:47:38;21.60;;;9.70;;
37349;SDS011;23231;52.358;4.926;2023-04-16T10:52:39;21.50;;;10.10;;
37349;SDS011;23231;52.358;4.926;2023-04-16T10:57:40;22.55;;;9.80;;
37349;SDS011;23231;52.358;4.926;2023-04-16T11:02:40;24.90;;;10.18;;
37349;SDS011;23231;52.358;4.926;2023-04-16T11:07:41;27.05;;;9.60;;
37349;SDS011;23231;52.358;4.926;2023-04-16T11:12:47;28.50;;;12.10;;
37349;SDS011;23231;52.358;4.926;2023-04-16T11:17:50;26.33;;;11.10;;
37349;SDS011;23231;52.358;4.926;2023-04-16T11:22:52;27.95;;;10.85;;
37349;SDS011;23231;52.358;4.926;2023-04-16T11:27:53;30.45;;;10.80;;
37349;SDS011;23231;52.358;4.926;2023-04-16T11:32:54;23.90;;;11.07;;
37349;SDS011;23231;52.358;4.926;2023-04-16T11:37:55;24.67;;;12.05;;
37349;SDS011;23231;52.358;4.926;2023-04-16T11:43:00;25.13;;;11.88;;
37349;SDS011;23231;52.358;4.926;2023-04-16T11:53:12;27.05;;;11.63;;
37349;SDS011;23231;52.358;4.926;2023-04-16T11:58:14;28.50;;;12.70;;
37349;SDS011;23231;52.358;4.926;2023-04-16T12:03:15;28.77;;;12.10;;
37349;SDS011;23231;52.358;4.926;2023-04-16T12:08:27;24.52;;;11.02;;
37349;SDS011;23231;52.358;4.926;2023-04-16T12:13:28;22.40;;;11.68;;
37349;SDS011;23231;52.358;4.926;2023-04-16T12:18:29;24.13;;;10.48;;
37349;SDS011;23231;52.358;4.926;2023-04-16T12:23:31;24.98;;;11.05;;
37349;SDS011;23231;52.358;4.926;2023-04-16T12:28:33;20.77;;;10.20;;
37349;SDS011;23231;52.358;4.926;2023-04-16T12:33:35;20.38;;;9.52;;
37349;SDS011;23231;52.358;4.926;2023-04-16T12:38:35;20.58;;;8.95;;
37349;SDS011;23231;52.358;4.926;2023-04-16T12:43:36;18.73;;;8.85;;
37349;SDS011;23231;52.358;4.926;2023-04-16T12:48:36;18.13;;;8.40;;
37349;SDS011;23231;52.358;4.926;2023-04-16T12:53:37;16.80;;;7.68;;
37349;SDS011;23231;52.358;4.926;2023-04-16T12:58:37;17.50;;;8.43;;
37349;SDS011;23231;52.358;4.926;2023-04-16T13:03:37;19.85;;;10.02;;
37349;SDS011;23231;52.358;4.926;2023-04-16T13:08:38;18.63;;;8.40;;
37349;SDS011;23231;52.358;4.926;2023-04-16T13:13:39;17.20;;;9.00;;
37349;SDS011;23231;52.358;4.926;2023-04-16T13:18:39;22.52;;;9.23;;
37349;SDS011;23231;52.358;4.926;2023-04-16T13:23:41;17.48;;;9.48;;
37349;SDS011;23231;52.358;4.926;2023-04-16T13:28:41;17.40;;;9.45;;
37349;SDS011;23231;52.358;4.926;2023-04-16T13:33:41;17.30;;;9.32;;
37349;SDS011;23231;52.358;4.926;2023-04-16T13:38:42;18.30;;;10.27;;
37349;SDS011;23231;52.358;4.926;2023-04-16T13:43:43;17.50;;;9.77;;
37349;SDS011;23231;52.358;4.926;2023-04-16T13:48:43;21.88;;;10.45;;
37349;SDS011;23231;52.358;4.926;2023-04-16T13:53:45;19.60;;;10.45;;
37349;SDS011;23231;52.358;4.926;2023-04-16T13:58:45;24.52;;;10.55;;
37349;SDS011;23231;52.358;4.926;2023-04-16T14:03:45;22.30;;;10.93;;
37349;SDS011;23231;52.358;4.926;2023-04-16T14:08:46;25.63;;;10.88;;
37349;SDS011;23231;52.358;4.926;2023-04-16T14:13:46;21.70;;;10.82;;
37349;SDS011;23231;52.358;4.926;2023-04-16T14:18:47;22.05;;;11.98;;
37349;SDS011;23231;52.358;4.926;2023-04-16T14:23:47;28.88;;;10.77;;
37349;SDS011;23231;52.358;4.926;2023-04-16T14:28:47;23.30;;;10.77;;
37349;SDS011;23231;52.358;4.926;2023-04-16T14:33:49;28.73;;;11.80;;
37349;SDS011;23231;52.358;4.926;2023-04-16T14:38:50;19.65;;;10.90;;
37349;SDS011;23231;52.358;4.926;2023-04-16T14:43:50;22.92;;;10.25;;
37349;SDS011;23231;52.358;4.926;2023-04-16T14:48:51;18.48;;;10.95;;
37349;SDS011;23231;52.358;4.926;2023-04-16T14:53:52;21.90;;;11.98;;
37349;SDS011;23231;52.358;4.926;2023-04-16T14:58:52;21.90;;;11.43;;
37349;SDS011;23231;52.358;4.926;2023-04-16T15:03:53;21.58;;;11.40;;
37349;SDS011;23231;52.358;4.926;2023-04-16T15:08:55;22.73;;;11.55;;
37349;SDS011;23231;52.358;4.926;2023-04-16T15:13:55;23.15;;;11.10;;
37349;SDS011;23231;52.358;4.926;2023-04-16T15:18:56;23.88;;;12.07;;
37349;SDS011;23231;52.358;4.926;2023-04-16T15:23:56;23.75;;;12.32;;
37349;SDS011;23231;52.358;4.926;2023-04-16T15:28:57;24.30;;;12.02;;
37349;SDS011;23231;52.358;4.926;2023-04-16T15:33:57;27.00;;;12.75;;
37349;SDS011;23231;52.358;4.926;2023-04-16T15:38:58;24.42;;;12.57;;
37349;SDS011;23231;52.358;4.926;2023-04-16T15:43:59;24.52;;;12.55;;
37349;SDS011;23231;52.358;4.926;2023-04-16T15:49:00;22.95;;;12.05;;
37349;SDS011;23231;52.358;4.926;2023-04-16T15:54:00;25.02;;;11.98;;
37349;SDS011;23231;52.358;4.926;2023-04-16T15:59:01;25.65;;;12.20;;
37349;SDS011;23231;52.358;4.926;2023-04-16T16:04:02;24.45;;;12.82;;
37349;SDS011;23231;52.358;4.926;2023-04-16T16:09:03;23.42;;;12.98;;
37349;SDS011;23231;52.358;4.926;2023-04-16T16:14:03;27.08;;;11.80;;
37349;SDS011;23231;52.358;4.926;2023-04-16T16:19:04;24.10;;;12.77;;
37349;SDS011;23231;52.358;4.926;2023-04-16T16:24:05;24.88;;;12.63;;
37349;SDS011;23231;52.358;4.926;2023-04-16T16:29:05;26.70;;;13.52;;
37349;SDS011;23231;52.358;4.926;2023-04-16T16:34:06;28.38;;;13.75;;
37349;SDS011;23231;52.358;4.926;2023-04-16T16:39:06;32.72;;;13.27;;
37349;SDS011;23231;52.358;4.926;2023-04-16T16:44:07;26.20;;;12.90;;
37349;SDS011;23231;52.358;4.926;2023-04-16T16:49:08;26.00;;;12.98;;
37349;SDS011;23231;52.358;4.926;2023-04-16T16:54:08;28.33;;;14.10;;
37349;SDS011;23231;52.358;4.926;2023-04-16T16:59:09;23.13;;;14.02;;
37349;SDS011;23231;52.358;4.926;2023-04-16T17:04:09;21.95;;;13.55;;
37349;SDS011;23231;52.358;4.926;2023-04-16T17:09:10;25.70;;;14.07;;
37349;SDS011;23231;52.358;4.926;2023-04-16T17:14:10;27.48;;;13.98;;
37349;SDS011;23231;52.358;4.926;2023-04-16T17:19:11;27.52;;;14.50;;
37349;SDS011;23231;52.358;4.926;2023-04-16T17:24:11;30.33;;;14.88;;
37349;SDS011;23231;52.358;4.926;2023-04-16T17:29:12;25.55;;;14.27;;
37349;SDS011;23231;52.358;4.926;2023-04-16T17:34:12;25.13;;;13.68;;
37349;SDS011;23231;52.358;4.926;2023-04-16T17:39:12;27.58;;;14.65;;
37349;SDS011;23231;52.358;4.926;2023-04-16T17:44:13;24.63;;;13.75;;
37349;SDS011;23231;52.358;4.926;2023-04-16T17:49:13;25.20;;;13.23;;
37349;SDS011;23231;52.358;4.926;2023-04-16T17:54:14;25.45;;;14.73;;
37349;SDS011;23231;52.358;4.926;2023-04-16T17:59:14;31.20;;;15.60;;
37349;SDS011;23231;52.358;4.926;2023-04-16T18:04:15;28.90;;;15.05;;
37349;SDS011;23231;52.358;4.926;2023-04-16T18:09:15;30.73;;;16.40;;
37349;SDS011;23231;52.358;4.926;2023-04-16T18:14:16;37.25;;;17.58;;
37349;SDS011;23231;52.358;4.926;2023-04-16T18:19:19;32.05;;;17.95;;
37349;SDS011;23231;52.358;4.926;2023-04-16T18:24:19;27.52;;;15.20;;
37349;SDS011;23231;52.358;4.926;2023-04-16T18:29:20;26.45;;;15.75;;
37349;SDS011;23231;52.358;4.926;2023-04-16T18:34:20;30.65;;;15.55;;
37349;SDS011;23231;52.358;4.926;2023-04-16T18:39:21;31.13;;;16.23;;
37349;SDS011;23231;52.358;4.926;2023-04-16T18:44:22;33.00;;;18.60;;
37349;SDS011;23231;52.358;4.926;2023-04-16T18:49:23;33.20;;;17.05;;
37349;SDS011;23231;52.358;4.926;2023-04-16T18:54:24;36.67;;;18.02;;
37349;SDS011;23231;52.358;4.926;2023-04-16T18:59:24;37.15;;;18.33;;
37349;SDS011;23231;52.358;4.926;2023-04-16T19:04:25;34.38;;;19.08;;
37349;SDS011;23231;52.358;4.926;2023-04-16T19:09:25;36.05;;;17.95;;
37349;SDS011;23231;52.358;4.926;2023-04-16T19:14:26;36.92;;;18.83;;
37349;SDS011;23231;52.358;4.926;2023-04-16T19:19:26;37.90;;;19.73;;
37349;SDS011;23231;52.358;4.926;2023-04-16T19:24:26;39.47;;;18.92;;
37349;SDS011;23231;52.358;4.926;2023-04-16T19:29:27;36.80;;;18.95;;
37349;SDS011;23231;52.358;4.926;2023-04-16T19:34:31;35.08;;;17.27;;
37349;SDS011;23231;52.358;4.926;2023-04-16T19:39:32;33.15;;;17.85;;
37349;SDS011;23231;52.358;4.926;2023-04-16T19:44:32;40.28;;;19.35;;
37349;SDS011;23231;52.358;4.926;2023-04-16T19:49:33;31.90;;;17.75;;
37349;SDS011;23231;52.358;4.926;2023-04-16T19:54:33;33.72;;;18.42;;
37349;SDS011;23231;52.358;4.926;2023-04-16T19:59:36;31.25;;;17.77;;
37349;SDS011;23231;52.358;4.926;2023-04-16T20:04:37;33.80;;;19.08;;
37349;SDS011;23231;52.358;4.926;2023-04-16T20:09:37;26.75;;;16.95;;
37349;SDS011;23231;52.358;4.926;2023-04-16T20:14:37;33.53;;;16.73;;
37349;SDS011;23231;52.358;4.926;2023-04-16T20:19:38;30.67;;;17.08;;
37349;SDS011;23231;52.358;4.926;2023-04-16T20:24:38;27.13;;;15.65;;
37349;SDS011;23231;52.358;4.926;2023-04-16T20:29:40;29.80;;;17.80;;
37349;SDS011;23231;52.358;4.926;2023-04-16T20:34:40;34.88;;;16.33;;
37349;SDS011;23231;52.358;4.926;2023-04-16T20:39:41;33.10;;;17.05;;
37349;SDS011;23231;52.358;4.926;2023-04-16T20:44:44;31.88;;;17.42;;
37349;SDS011;23231;52.358;4.926;2023-04-16T20:49:49;36.38;;;17.55;;
37349;SDS011;23231;52.358;4.926;2023-04-16T20:54:51;35.10;;;17.70;;
37349;SDS011;23231;52.358;4.926;2023-04-16T20:59:52;33.13;;;17.83;;
37349;SDS011;23231;52.358;4.926;2023-04-16T21:04:52;37.58;;;20.17;;
37349;SDS011;23231;52.358;4.926;2023-04-16T21:09:52;36.03;;;18.63;;
37349;SDS011;23231;52.358;4.926;2023-04-16T21:14:53;36.10;;;17.98;;
37349;SDS011;23231;52.358;4.926;2023-04-16T21:19:53;34.13;;;18.10;;
37349;SDS011;23231;52.358;4.926;2023-04-16T21:24:54;31.17;;;16.45;;
37349;SDS011;23231;52.358;4.926;2023-04-16T21:29:55;34.90;;;18.25;;
37349;SDS011;23231;52.358;4.926;2023-04-16T21:34:55;35.38;;;17.05;;
37349;SDS011;23231;52.358;4.926;2023-04-16T21:39:56;28.80;;;16.33;;
37349;SDS011;23231;52.358;4.926;2023-04-16T21:44:57;34.28;;;17.40;;
37349;SDS011;23231;52.358;4.926;2023-04-16T21:49:57;35.78;;;18.33;;
37349;SDS011;23231;52.358;4.926;2023-04-16T21:54:58;33.25;;;16.70;;
37349;SDS011;23231;52.358;4.926;2023-04-16T21:59:59;31.13;;;16.13;;
37349;SDS011;23231;52.358;4.926;2023-04-16T22:04:59;31.08;;;17.77;;
37349;SDS011;23231;52.358;4.926;2023-04-16T22:10:00;32.72;;;16.70;;
37349;SDS011;23231;52.358;4.926;2023-04-16T22:15:00;39.67;;;19.00;;
37349;SDS011;23231;52.358;4.926;2023-04-16T22:20:01;36.17;;;18.30;;
37349;SDS011;23231;52.358;4.926;2023-04-16T22:25:05;42.25;;;19.33;;
37349;SDS011;23231;52.358;4.926;2023-04-16T22:30:06;39.22;;;18.40;;
37349;SDS011;23231;52.358;4.926;2023-04-16T22:35:08;40.78;;;20.27;;
37349;SDS011;23231;52.358;4.926;2023-04-16T22:40:08;42.67;;;20.27;;
37349;SDS011;23231;52.358;4.926;2023-04-16T22:45:10;42.35;;;20.75;;
37349;SDS011;23231;52.358;4.926;2023-04-16T22:50:11;43.65;;;20.77;;
37349;SDS011;23231;52.358;4.926;2023-04-16T22:55:12;45.97;;;21.15;;
37349;SDS011;23231;52.358;4.926;2023-04-16T23:00:12;43.65;;;21.40;;
37349;SDS011;23231;52.358;4.926;2023-04-16T23:05:15;46.40;;;22.02;;
37349;SDS011;23231;52.358;4.926;2023-04-16T23:10:15;49.35;;;21.88;;
37349;SDS011;23231;52.358;4.926;2023-04-16T23:15:16;44.13;;;21.60;;
37349;SDS011;23231;52.358;4.926;2023-04-16T23:20:17;49.60;;;20.42;;
37349;SDS011;23231;52.358;4.926;2023-04-16T23:25:17;39.58;;;20.15;;
37349;SDS011;23231;52.358;4.926;2023-04-16T23:30:18;41.30;;;19.83;;
37349;SDS011;23231;52.358;4.926;2023-04-16T23:35:18;46.17;;;21.58;;
37349;SDS011;23231;52.358;4.926;2023-04-16T23:40:21;41.35;;;20.42;;
37349;SDS011;23231;52.358;4.926;2023-04-16T23:45:22;41.00;;;19.77;;
37349;SDS011;23231;52.358;4.926;2023-04-16T23:50:22;46.22;;;20.77;;
37349;SDS011;23231;52.358;4.926;2023-04-16T23:55:23;46.30;;;21.75;;
